sensor_id;sensor_type;location;lat;lon;timestamp;temperature;humidity
40732;DHT22;26420;52.256;9.096;2023-12-22T00:02:36;4.60;99.90
40732;DHT22;26420;52.256;9.096;2023-12-22T00:07:38;4.60;99.90
40732;DHT22;26420;52.256;9.096;2023-12-22T00:12:39;4.60;99.90
40732;DHT22;26420;52.256;9.096;2023-12-22T00:17:42;4.50;99.90
40732;DHT22;26420;52.256;9.096;2023-12-22T00:22:44;4.60;99.90
40732;DHT22;26420;52.256;9.096;2023-12-22T00:27:46;4.60;99.90
40732;DHT22;26420;52.256;9.096;2023-12-22T00:32:48;4.60;99.90
40732;DHT22;26420;52.256;9.096;2023-12-22T00:37:50;4.70;99.90
40732;DHT22;26420;52.256;9.096;2023-12-22T00:42:52;4.70;99.90
40732;DHT22;26420;52.256;9.096;2023-12-22T00:47:54;4.70;99.90
40732;DHT22;26420;52.256;9.096;2023-12-22T00:52:55;4.70;99.90
40732;DHT22;26420;52.256;9.096;2023-12-22T00:57:58;4.50;99.90
40732;DHT22;26420;52.256;9.096;2023-12-22T01:02:59;4.30;99.90
40732;DHT22;26420;52.256;9.096;2023-12-22T01:08:01;4.40;99.90
40732;DHT22;26420;52.256;9.096;2023-12-22T01:13:03;4.30;99.90
40732;DHT22;26420;52.256;9.096;2023-12-22T01:18:05;4.30;99.90
40732;DHT22;26420;52.256;9.096;2023-12-22T01:23:07;4.30;99.90
40732;DHT22;26420;52.256;9.096;2023-12-22T01:28:09;4.30;99.90
40732;DHT22;26420;52.256;9.096;2023-12-22T01:33:10;4.40;99.90
40732;DHT22;26420;52.256;9.096;2023-12-22T01:38:12;4.40;99.90
40732;DHT22;26420;52.256;9.096;2023-12-22T01:43:14;4.50;99.90
40732;DHT22;26420;52.256;9.096;2023-12-22T01:48:18;4.50;99.90
40732;DHT22;26420;52.256;9.096;2023-12-22T01:53:20;4.50;99.90
40732;DHT22;26420;52.256;9.096;2023-12-22T01:58:23;4.40;99.90
40732;DHT22;26420;52.256;9.096;2023-12-22T02:03:25;4.40;99.90
40732;DHT22;26420;52.256;9.096;2023-12-22T02:08:28;4.40;99.90
40732;DHT22;26420;52.256;9.096;2023-12-22T02:13:32;4.40;99.90
40732;DHT22;26420;52.256;9.096;2023-12-22T02:18:38;4.40;99.90
40732;DHT22;26420;52.256;9.096;2023-12-22T02:23:40;4.40;99.90
40732;DHT22;26420;52.256;9.096;2023-12-22T02:28:44;4.30;99.90
40732;DHT22;26420;52.256;9.096;2023-12-22T02:33:49;4.30;99.90
40732;DHT22;26420;52.256;9.096;2023-12-22T02:38:54;4.30;99.90
40732;DHT22;26420;52.256;9.096;2023-12-22T02:43:57;4.30;99.90
40732;DHT22;26420;52.256;9.096;2023-12-22T02:49:00;4.30;99.90
40732;DHT22;26420;52.256;9.096;2023-12-22T02:54:02;4.30;99.90
40732;DHT22;26420;52.256;9.096;2023-12-22T02:59:04;4.30;99.90
40732;DHT22;26420;52.256;9.096;2023-12-22T03:04:05;4.20;99.90
40732;DHT22;26420;52.256;9.096;2023-12-22T03:09:07;4.30;99.90
40732;DHT22;26420;52.256;9.096;2023-12-22T03:14:10;4.30;99.90
40732;DHT22;26420;52.256;9.096;2023-12-22T03:19:12;4.10;99.90
40732;DHT22;26420;52.256;9.096;2023-12-22T03:24:13;4.10;99.90
40732;DHT22;26420;52.256;9.096;2023-12-22T03:29:15;4.10;99.90
40732;DHT22;26420;52.256;9.096;2023-12-22T03:34:17;4.00;99.90
40732;DHT22;26420;52.256;9.096;2023-12-22T03:39:19;4.10;99.90
40732;DHT22;26420;52.256;9.096;2023-12-22T03:44:21;4.10;99.90
40732;DHT22;26420;52.256;9.096;2023-12-22T03:49:26;4.20;99.90
40732;DHT22;26420;52.256;9.096;2023-12-22T03:54:27;4.20;99.90
40732;DHT22;26420;52.256;9.096;2023-12-22T03:59:29;4.30;99.90
40732;DHT22;26420;52.256;9.096;2023-12-22T04:04:31;4.30;99.90
40732;DHT22;26420;52.256;9.096;2023-12-22T04:09:33;4.40;99.90
40732;DHT22;26420;52.256;9.096;2023-12-22T04:14:35;4.50;99.90
40732;DHT22;26420;52.256;9.096;2023-12-22T04:19:37;4.60;99.90
40732;DHT22;26420;52.256;9.096;2023-12-22T04:24:39;4.70;99.90
40732;DHT22;26420;52.256;9.096;2023-12-22T04:29:40;4.60;99.90
40732;DHT22;26420;52.256;9.096;2023-12-22T04:34:42;4.40;99.90
40732;DHT22;26420;52.256;9.096;2023-12-22T04:39:44;4.30;99.90
40732;DHT22;26420;52.256;9.096;2023-12-22T04:44:46;4.30;99.90
40732;DHT22;26420;52.256;9.096;2023-12-22T04:49:48;4.50;99.90
40732;DHT22;26420;52.256;9.096;2023-12-22T04:54:49;4.60;99.90
40732;DHT22;26420;52.256;9.096;2023-12-22T04:59:51;4.60;99.90
40732;DHT22;26420;52.256;9.096;2023-12-22T05:04:53;4.50;99.90
40732;DHT22;26420;52.256;9.096;2023-12-22T05:09:55;4.50;99.90
40732;DHT22;26420;52.256;9.096;2023-12-22T05:14:57;4.60;99.90
40732;DHT22;26420;52.256;9.096;2023-12-22T05:19:59;4.60;99.90
40732;DHT22;26420;52.256;9.096;2023-12-22T05:25:01;4.60;99.90
40732;DHT22;26420;52.256;9.096;2023-12-22T05:30:03;4.60;99.90
40732;DHT22;26420;52.256;9.096;2023-12-22T05:35:06;4.60;99.90
40732;DHT22;26420;52.256;9.096;2023-12-22T05:40:09;4.60;99.90
40732;DHT22;26420;52.256;9.096;2023-12-22T05:45:12;4.60;99.90
40732;DHT22;26420;52.256;9.096;2023-12-22T05:50:15;4.60;99.90
40732;DHT22;26420;52.256;9.096;2023-12-22T05:55:18;4.40;99.90
40732;DHT22;26420;52.256;9.096;2023-12-22T06:00:20;4.30;99.90
40732;DHT22;26420;52.256;9.096;2023-12-22T06:05:22;4.20;99.90
40732;DHT22;26420;52.256;9.096;2023-12-22T06:10:25;4.20;99.90
40732;DHT22;26420;52.256;9.096;2023-12-22T06:15:27;4.30;99.90
40732;DHT22;26420;52.256;9.096;2023-12-22T06:20:28;4.40;99.90
40732;DHT22;26420;52.256;9.096;2023-12-22T06:25:30;4.50;99.90
40732;DHT22;26420;52.256;9.096;2023-12-22T06:30:32;4.50;99.90
40732;DHT22;26420;52.256;9.096;2023-12-22T06:35:34;4.60;99.90
40732;DHT22;26420;52.256;9.096;2023-12-22T06:40:36;4.60;99.90
40732;DHT22;26420;52.256;9.096;2023-12-22T06:45:38;4.70;99.90
40732;DHT22;26420;52.256;9.096;2023-12-22T06:50:41;4.70;99.90
40732;DHT22;26420;52.256;9.096;2023-12-22T06:55:46;4.70;99.90
40732;DHT22;26420;52.256;9.096;2023-12-22T07:00:48;4.70;99.90
40732;DHT22;26420;52.256;9.096;2023-12-22T07:05:50;4.80;99.90
40732;DHT22;26420;52.256;9.096;2023-12-22T07:10:52;4.80;99.90
40732;DHT22;26420;52.256;9.096;2023-12-22T07:15:54;4.80;99.90
40732;DHT22;26420;52.256;9.096;2023-12-22T07:20:59;4.70;99.90
40732;DHT22;26420;52.256;9.096;2023-12-22T07:26:01;4.80;99.90
40732;DHT22;26420;52.256;9.096;2023-12-22T07:31:14;4.80;99.90
40732;DHT22;26420;52.256;9.096;2023-12-22T07:36:16;4.90;99.90
40732;DHT22;26420;52.256;9.096;2023-12-22T07:41:20;4.90;99.90
40732;DHT22;26420;52.256;9.096;2023-12-22T07:46:22;5.00;99.90
40732;DHT22;26420;52.256;9.096;2023-12-22T07:51:25;5.10;99.90
40732;DHT22;26420;52.256;9.096;2023-12-22T07:56:27;5.20;99.90
40732;DHT22;26420;52.256;9.096;2023-12-22T08:01:28;5.30;99.90
40732;DHT22;26420;52.256;9.096;2023-12-22T08:06:30;5.30;99.90
40732;DHT22;26420;52.256;9.096;2023-12-22T08:11:32;5.40;99.90
40732;DHT22;26420;52.256;9.096;2023-12-22T08:16:34;5.40;99.90
40732;DHT22;26420;52.256;9.096;2023-12-22T08:21:36;5.50;99.90
40732;DHT22;26420;52.256;9.096;2023-12-22T08:26:44;5.50;99.90
40732;DHT22;26420;52.256;9.096;2023-12-22T08:31:46;5.70;99.90
40732;DHT22;26420;52.256;9.096;2023-12-22T08:36:48;5.60;99.90
40732;DHT22;26420;52.256;9.096;2023-12-22T08:41:50;5.70;99.90
40732;DHT22;26420;52.256;9.096;2023-12-22T08:46:52;5.70;99.90
40732;DHT22;26420;52.256;9.096;2023-12-22T08:51:54;5.80;99.90
40732;DHT22;26420;52.256;9.096;2023-12-22T08:56:56;5.80;99.90
40732;DHT22;26420;52.256;9.096;2023-12-22T09:01:57;5.90;99.90
40732;DHT22;26420;52.256;9.096;2023-12-22T09:06:59;5.90;99.90
40732;DHT22;26420;52.256;9.096;2023-12-22T09:12:01;6.00;99.90
40732;DHT22;26420;52.256;9.096;2023-12-22T09:17:03;6.10;99.90
40732;DHT22;26420;52.256;9.096;2023-12-22T09:22:06;6.00;99.90
40732;DHT22;26420;52.256;9.096;2023-12-22T09:27:07;5.80;99.90
40732;DHT22;26420;52.256;9.096;2023-12-22T09:32:09;5.80;99.90
40732;DHT22;26420;52.256;9.096;2023-12-22T09:37:11;5.80;99.90
40732;DHT22;26420;52.256;9.096;2023-12-22T09:42:13;5.80;99.90
40732;DHT22;26420;52.256;9.096;2023-12-22T09:47:16;5.80;99.90
40732;DHT22;26420;52.256;9.096;2023-12-22T09:52:19;5.70;99.90
40732;DHT22;26420;52.256;9.096;2023-12-22T09:57:24;5.80;99.90
40732;DHT22;26420;52.256;9.096;2023-12-22T10:02:29;5.70;99.90
40732;DHT22;26420;52.256;9.096;2023-12-22T10:07:32;5.60;99.90
40732;DHT22;26420;52.256;9.096;2023-12-22T10:12:36;5.70;99.90
40732;DHT22;26420;52.256;9.096;2023-12-22T10:17:40;5.70;99.90
40732;DHT22;26420;52.256;9.096;2023-12-22T10:22:42;5.90;99.90
40732;DHT22;26420;52.256;9.096;2023-12-22T10:27:44;6.00;99.90
40732;DHT22;26420;52.256;9.096;2023-12-22T10:32:47;6.20;99.90
40732;DHT22;26420;52.256;9.096;2023-12-22T10:37:49;6.30;99.90
40732;DHT22;26420;52.256;9.096;2023-12-22T10:42:55;6.30;99.90
40732;DHT22;26420;52.256;9.096;2023-12-22T10:47:57;6.30;99.90
40732;DHT22;26420;52.256;9.096;2023-12-22T10:52:59;6.40;99.90
40732;DHT22;26420;52.256;9.096;2023-12-22T10:58:03;6.50;99.90
40732;DHT22;26420;52.256;9.096;2023-12-22T11:03:08;6.50;99.90
40732;DHT22;26420;52.256;9.096;2023-12-22T11:08:12;6.60;99.90
40732;DHT22;26420;52.256;9.096;2023-12-22T11:13:16;6.60;99.90
40732;DHT22;26420;52.256;9.096;2023-12-22T11:18:18;6.60;99.90
40732;DHT22;26420;52.256;9.096;2023-12-22T11:23:22;6.60;99.90
40732;DHT22;26420;52.256;9.096;2023-12-22T11:28:25;6.60;99.90
40732;DHT22;26420;52.256;9.096;2023-12-22T11:33:28;6.60;99.90
40732;DHT22;26420;52.256;9.096;2023-12-22T11:38:30;6.60;99.90
40732;DHT22;26420;52.256;9.096;2023-12-22T11:43:34;6.70;99.90
40732;DHT22;26420;52.256;9.096;2023-12-22T11:48:37;6.70;99.90
40732;DHT22;26420;52.256;9.096;2023-12-22T11:53:39;6.80;99.90
40732;DHT22;26420;52.256;9.096;2023-12-22T11:58:46;6.90;99.90
40732;DHT22;26420;52.256;9.096;2023-12-22T12:04:03;6.90;99.90
40732;DHT22;26420;52.256;9.096;2023-12-22T12:09:10;6.90;99.90
40732;DHT22;26420;52.256;9.096;2023-12-22T12:14:16;6.90;99.90
40732;DHT22;26420;52.256;9.096;2023-12-22T12:19:24;7.00;99.90
40732;DHT22;26420;52.256;9.096;2023-12-22T12:24:26;7.00;99.90
40732;DHT22;26420;52.256;9.096;2023-12-22T12:29:28;7.10;99.90
40732;DHT22;26420;52.256;9.096;2023-12-22T12:34:30;7.10;99.90
40732;DHT22;26420;52.256;9.096;2023-12-22T12:39:34;7.00;99.90
40732;DHT22;26420;52.256;9.096;2023-12-22T12:44:37;7.00;99.90
40732;DHT22;26420;52.256;9.096;2023-12-22T12:49:39;7.00;99.90
40732;DHT22;26420;52.256;9.096;2023-12-22T12:54:42;7.00;99.90
40732;DHT22;26420;52.256;9.096;2023-12-22T12:59:50;6.90;99.90
40732;DHT22;26420;52.256;9.096;2023-12-22T13:04:52;6.90;99.90
40732;DHT22;26420;52.256;9.096;2023-12-22T13:09:54;6.90;99.90
40732;DHT22;26420;52.256;9.096;2023-12-22T13:15:02;6.90;99.90
40732;DHT22;26420;52.256;9.096;2023-12-22T13:20:05;6.90;99.90
40732;DHT22;26420;52.256;9.096;2023-12-22T13:25:07;6.90;99.90
40732;DHT22;26420;52.256;9.096;2023-12-22T13:30:10;6.90;99.90
40732;DHT22;26420;52.256;9.096;2023-12-22T13:35:12;6.80;99.90
40732;DHT22;26420;52.256;9.096;2023-12-22T13:40:14;6.80;99.90
40732;DHT22;26420;52.256;9.096;2023-12-22T13:45:16;6.80;99.90
40732;DHT22;26420;52.256;9.096;2023-12-22T13:50:18;6.80;99.90
40732;DHT22;26420;52.256;9.096;2023-12-22T13:55:21;6.80;99.90
40732;DHT22;26420;52.256;9.096;2023-12-22T14:00:25;6.90;99.90
40732;DHT22;26420;52.256;9.096;2023-12-22T14:05:27;6.90;99.90
40732;DHT22;26420;52.256;9.096;2023-12-22T14:10:33;6.80;99.90
40732;DHT22;26420;52.256;9.096;2023-12-22T14:15:34;6.80;99.90
40732;DHT22;26420;52.256;9.096;2023-12-22T14:20:44;6.70;99.90
40732;DHT22;26420;52.256;9.096;2023-12-22T14:25:47;6.80;99.90
40732;DHT22;26420;52.256;9.096;2023-12-22T14:30:49;6.70;99.90
40732;DHT22;26420;52.256;9.096;2023-12-22T14:35:51;6.70;99.90
40732;DHT22;26420;52.256;9.096;2023-12-22T14:40:53;6.60;99.90
40732;DHT22;26420;52.256;9.096;2023-12-22T14:45:55;6.60;99.90
40732;DHT22;26420;52.256;9.096;2023-12-22T14:50:57;6.50;99.90
40732;DHT22;26420;52.256;9.096;2023-12-22T14:55:58;6.50;99.90
40732;DHT22;26420;52.256;9.096;2023-12-22T15:01:00;6.50;99.90
40732;DHT22;26420;52.256;9.096;2023-12-22T15:06:03;6.40;99.90
40732;DHT22;26420;52.256;9.096;2023-12-22T15:11:05;6.40;99.90
40732;DHT22;26420;52.256;9.096;2023-12-22T15:16:09;6.30;99.90
40732;DHT22;26420;52.256;9.096;2023-12-22T15:21:19;6.30;99.90
40732;DHT22;26420;52.256;9.096;2023-12-22T15:26:23;6.30;99.90
40732;DHT22;26420;52.256;9.096;2023-12-22T15:31:27;6.30;99.90
40732;DHT22;26420;52.256;9.096;2023-12-22T15:36:31;6.30;99.90
40732;DHT22;26420;52.256;9.096;2023-12-22T15:41:33;6.20;99.90
40732;DHT22;26420;52.256;9.096;2023-12-22T15:46:36;6.30;99.90
40732;DHT22;26420;52.256;9.096;2023-12-22T15:51:37;6.40;99.90
40732;DHT22;26420;52.256;9.096;2023-12-22T15:56:39;6.40;99.90
40732;DHT22;26420;52.256;9.096;2023-12-22T16:01:44;6.50;99.90
40732;DHT22;26420;52.256;9.096;2023-12-22T16:06:46;6.50;99.90
40732;DHT22;26420;52.256;9.096;2023-12-22T16:11:48;6.60;99.90
40732;DHT22;26420;52.256;9.096;2023-12-22T16:16:54;6.70;99.90
40732;DHT22;26420;52.256;9.096;2023-12-22T16:21:57;6.70;99.90
40732;DHT22;26420;52.256;9.096;2023-12-22T16:26:59;6.70;99.90
40732;DHT22;26420;52.256;9.096;2023-12-22T16:32:01;6.70;99.90
40732;DHT22;26420;52.256;9.096;2023-12-22T16:37:03;6.70;99.90
40732;DHT22;26420;52.256;9.096;2023-12-22T16:42:06;6.70;99.90
40732;DHT22;26420;52.256;9.096;2023-12-22T16:47:10;6.70;99.90
40732;DHT22;26420;52.256;9.096;2023-12-22T16:52:12;6.70;99.90
40732;DHT22;26420;52.256;9.096;2023-12-22T16:57:14;6.70;99.90
40732;DHT22;26420;52.256;9.096;2023-12-22T17:02:16;6.60;99.90
40732;DHT22;26420;52.256;9.096;2023-12-22T17:07:28;6.60;99.90
40732;DHT22;26420;52.256;9.096;2023-12-22T17:12:34;6.60;99.90
40732;DHT22;26420;52.256;9.096;2023-12-22T17:17:36;6.60;99.90
40732;DHT22;26420;52.256;9.096;2023-12-22T17:22:38;6.60;99.90
40732;DHT22;26420;52.256;9.096;2023-12-22T17:27:40;6.60;99.90
40732;DHT22;26420;52.256;9.096;2023-12-22T17:32:42;6.60;99.90
40732;DHT22;26420;52.256;9.096;2023-12-22T17:37:44;6.60;99.90
40732;DHT22;26420;52.256;9.096;2023-12-22T17:42:45;6.70;99.90
40732;DHT22;26420;52.256;9.096;2023-12-22T17:47:48;6.70;99.90
40732;DHT22;26420;52.256;9.096;2023-12-22T17:52:50;6.70;99.90
40732;DHT22;26420;52.256;9.096;2023-12-22T17:57:52;6.70;99.90
40732;DHT22;26420;52.256;9.096;2023-12-22T18:02:54;6.70;99.90
40732;DHT22;26420;52.256;9.096;2023-12-22T18:07:56;6.70;99.90
40732;DHT22;26420;52.256;9.096;2023-12-22T18:12:57;6.80;99.90
40732;DHT22;26420;52.256;9.096;2023-12-22T18:17:59;6.80;99.90
40732;DHT22;26420;52.256;9.096;2023-12-22T18:23:02;6.80;99.90
40732;DHT22;26420;52.256;9.096;2023-12-22T18:28:04;6.90;99.90
40732;DHT22;26420;52.256;9.096;2023-12-22T18:33:07;6.90;99.90
40732;DHT22;26420;52.256;9.096;2023-12-22T18:38:09;6.90;99.90
40732;DHT22;26420;52.256;9.096;2023-12-22T18:43:11;6.90;99.90
40732;DHT22;26420;52.256;9.096;2023-12-22T18:48:13;6.90;99.90
40732;DHT22;26420;52.256;9.096;2023-12-22T18:53:15;6.90;99.90
40732;DHT22;26420;52.256;9.096;2023-12-22T18:58:18;6.80;99.90
40732;DHT22;26420;52.256;9.096;2023-12-22T19:03:21;6.90;99.90
40732;DHT22;26420;52.256;9.096;2023-12-22T19:08:23;6.90;99.90
40732;DHT22;26420;52.256;9.096;2023-12-22T19:13:25;6.90;99.90
40732;DHT22;26420;52.256;9.096;2023-12-22T19:18:27;7.00;99.90
40732;DHT22;26420;52.256;9.096;2023-12-22T19:23:29;7.00;99.90
40732;DHT22;26420;52.256;9.096;2023-12-22T19:28:31;6.90;99.90
40732;DHT22;26420;52.256;9.096;2023-12-22T19:33:33;6.80;99.90
40732;DHT22;26420;52.256;9.096;2023-12-22T19:38:35;6.70;99.90
40732;DHT22;26420;52.256;9.096;2023-12-22T19:43:37;6.50;99.90
40732;DHT22;26420;52.256;9.096;2023-12-22T19:48:39;6.40;99.90
40732;DHT22;26420;52.256;9.096;2023-12-22T19:53:40;6.40;99.90
40732;DHT22;26420;52.256;9.096;2023-12-22T19:58:42;6.40;99.90
40732;DHT22;26420;52.256;9.096;2023-12-22T20:03:44;6.50;99.90
40732;DHT22;26420;52.256;9.096;2023-12-22T20:08:46;6.40;99.90
40732;DHT22;26420;52.256;9.096;2023-12-22T20:13:48;6.40;99.90
40732;DHT22;26420;52.256;9.096;2023-12-22T20:18:50;6.40;99.90
40732;DHT22;26420;52.256;9.096;2023-12-22T20:23:52;6.40;99.90
40732;DHT22;26420;52.256;9.096;2023-12-22T20:28:55;6.40;99.90
40732;DHT22;26420;52.256;9.096;2023-12-22T20:33:58;6.40;99.90
40732;DHT22;26420;52.256;9.096;2023-12-22T20:39:01;6.30;99.90
40732;DHT22;26420;52.256;9.096;2023-12-22T20:44:02;6.30;99.90
40732;DHT22;26420;52.256;9.096;2023-12-22T20:49:04;6.20;99.90
40732;DHT22;26420;52.256;9.096;2023-12-22T20:54:06;6.30;99.90
40732;DHT22;26420;52.256;9.096;2023-12-22T20:59:08;6.20;99.90
40732;DHT22;26420;52.256;9.096;2023-12-22T21:04:10;6.20;99.90
40732;DHT22;26420;52.256;9.096;2023-12-22T21:09:12;6.20;99.90
40732;DHT22;26420;52.256;9.096;2023-12-22T21:14:14;6.10;99.90
40732;DHT22;26420;52.256;9.096;2023-12-22T21:19:16;6.10;99.90
40732;DHT22;26420;52.256;9.096;2023-12-22T21:24:18;6.10;99.90
40732;DHT22;26420;52.256;9.096;2023-12-22T21:29:20;6.10;99.90
40732;DHT22;26420;52.256;9.096;2023-12-22T21:34:22;6.10;99.90
40732;DHT22;26420;52.256;9.096;2023-12-22T21:39:24;6.10;99.90
40732;DHT22;26420;52.256;9.096;2023-12-22T21:44:26;6.10;99.90
40732;DHT22;26420;52.256;9.096;2023-12-22T21:49:28;6.00;99.90
40732;DHT22;26420;52.256;9.096;2023-12-22T21:54:31;5.80;99.90
40732;DHT22;26420;52.256;9.096;2023-12-22T21:59:33;5.80;99.90
40732;DHT22;26420;52.256;9.096;2023-12-22T22:04:35;5.60;99.90
40732;DHT22;26420;52.256;9.096;2023-12-22T22:09:37;5.50;99.90
40732;DHT22;26420;52.256;9.096;2023-12-22T22:14:38;5.50;99.90
40732;DHT22;26420;52.256;9.096;2023-12-22T22:19:40;5.50;99.90
40732;DHT22;26420;52.256;9.096;2023-12-22T22:24:42;5.40;99.90
40732;DHT22;26420;52.256;9.096;2023-12-22T22:29:44;5.40;99.90
40732;DHT22;26420;52.256;9.096;2023-12-22T22:34:46;5.30;99.90
40732;DHT22;26420;52.256;9.096;2023-12-22T22:39:48;5.20;99.90
40732;DHT22;26420;52.256;9.096;2023-12-22T22:44:50;5.10;99.90
40732;DHT22;26420;52.256;9.096;2023-12-22T22:49:51;5.10;99.90
40732;DHT22;26420;52.256;9.096;2023-12-22T22:54:53;5.00;99.90
40732;DHT22;26420;52.256;9.096;2023-12-22T22:59:55;5.00;99.90
40732;DHT22;26420;52.256;9.096;2023-12-22T23:04:57;5.10;99.90
40732;DHT22;26420;52.256;9.096;2023-12-22T23:09:59;5.10;99.90
40732;DHT22;26420;52.256;9.096;2023-12-22T23:15:01;5.10;99.90
40732;DHT22;26420;52.256;9.096;2023-12-22T23:20:04;4.90;99.90
40732;DHT22;26420;52.256;9.096;2023-12-22T23:25:07;4.70;99.90
40732;DHT22;26420;52.256;9.096;2023-12-22T23:30:10;4.60;99.90
40732;DHT22;26420;52.256;9.096;2023-12-22T23:35:12;4.60;99.90
40732;DHT22;26420;52.256;9.096;2023-12-22T23:40:14;4.50;99.90
40732;DHT22;26420;52.256;9.096;2023-12-22T23:45:16;4.40;99.90
40732;DHT22;26420;52.256;9.096;2023-12-22T23:50:18;4.30;99.90
40732;DHT22;26420;52.256;9.096;2023-12-22T23:55:20;4.20;99.90
